createdAt,value
2023-05-21T00:05:54.033Z,100
2023-05-21T00:11:53.999Z,100
2023-05-21T00:17:54.048Z,100
2023-05-21T00:23:53.983Z,100
2023-05-21T00:29:54.004Z,100
2023-05-21T00:35:54.008Z,100
2023-05-21T00:41:54.338Z,100
2023-05-21T00:47:54.038Z,100
2023-05-21T00:53:53.988Z,100
2023-05-21T00:59:53.989Z,100
2023-05-21T01:05:53.995Z,100
2023-05-21T01:11:54.003Z,100
2023-05-21T01:17:54.007Z,100
2023-05-21T01:23:53.994Z,100
2023-05-21T01:29:54.012Z,100
2023-05-21T01:35:54.026Z,100
2023-05-21T01:41:53.997Z,100
2023-05-21T01:47:54.039Z,100
2023-05-21T01:53:54.020Z,100
2023-05-21T01:59:54.000Z,100
2023-05-21T02:05:54.006Z,100
2023-05-21T02:11:54.004Z,100
2023-05-21T02:17:54.036Z,100
2023-05-21T02:23:54.018Z,100
2023-05-21T02:29:53.993Z,100
2023-05-21T02:35:54.008Z,100
2023-05-21T02:41:54.024Z,100
2023-05-21T02:47:54.093Z,100
2023-05-21T02:53:54.021Z,100
2023-05-21T02:59:53.992Z,100
2023-05-21T03:05:54.025Z,100
2023-05-21T03:11:54.021Z,100
2023-05-21T03:17:54.190Z,100
2023-05-21T03:23:54.017Z,100
2023-05-21T03:29:54.005Z,100
2023-05-21T03:35:54.023Z,100
2023-05-21T03:41:54.009Z,100
2023-05-21T03:47:54.131Z,100
2023-05-21T03:53:54.027Z,100
2023-05-21T03:59:54.418Z,100
2023-05-21T04:05:53.997Z,100
2023-05-21T04:17:54.082Z,100
2023-05-21T04:23:54.030Z,100
2023-05-21T04:29:54.005Z,100
2023-05-21T04:35:54.012Z,100
2023-05-21T04:41:54.029Z,100
2023-05-21T04:47:54.058Z,100
2023-05-21T04:53:54.092Z,100
2023-05-21T04:59:54.039Z,100
2023-05-21T05:05:54.011Z,100
2023-05-21T05:17:54.062Z,100
2023-05-21T05:23:54.054Z,100
2023-05-21T05:29:54.014Z,100
2023-05-21T05:35:54.020Z,100
2023-05-21T05:41:54.020Z,100
2023-05-21T05:47:54.071Z,100
2023-05-21T05:53:54.045Z,100
2023-05-21T05:59:54.046Z,100
2023-05-21T06:05:54.120Z,100
2023-05-21T06:11:54.068Z,100
2023-05-21T06:17:54.192Z,100
2023-05-21T06:23:54.034Z,100
2023-05-21T06:29:54.037Z,100
2023-05-21T06:35:54.059Z,100
2023-05-21T06:41:54.017Z,100
2023-05-21T06:47:54.079Z,97
2023-05-21T06:53:54.027Z,92.9
2023-05-21T06:59:54.036Z,90.2
2023-05-21T07:05:54.043Z,83.6
2023-05-21T07:11:54.037Z,73.3
2023-05-21T07:17:54.097Z,65.6
2023-05-21T07:23:54.033Z,58.8
2023-05-21T07:29:54.034Z,62.9
2023-05-21T07:35:54.049Z,52.8
2023-05-21T07:41:54.045Z,50.9
2023-05-21T07:47:54.136Z,49.6
2023-05-21T07:53:55.251Z,46.3
2023-05-21T07:59:54.049Z,44
2023-05-21T08:05:54.048Z,43
2023-05-21T08:11:54.094Z,47.6
2023-05-21T08:17:54.104Z,48.2
2023-05-21T08:23:54.077Z,42.6
2023-05-21T08:29:54.095Z,45.5
2023-05-21T08:35:54.064Z,46.1
2023-05-21T08:41:54.084Z,48
2023-05-21T08:47:54.128Z,55.5
2023-05-21T08:53:54.165Z,57.3
2023-05-21T08:59:54.138Z,56.4
2023-05-21T09:05:54.101Z,58.4
2023-05-21T09:11:54.089Z,56.9
2023-05-21T09:17:54.124Z,49.1
2023-05-21T09:23:54.091Z,47.6
2023-05-21T09:29:54.094Z,54.3
2023-05-21T09:35:54.116Z,52.7
2023-05-21T09:41:54.117Z,56.5
2023-05-21T09:47:54.121Z,55
2023-05-21T09:59:54.132Z,48.5
2023-05-21T10:05:54.106Z,48.9
2023-05-21T10:11:54.117Z,46.2
2023-05-21T10:17:54.277Z,45.1
2023-05-21T10:23:54.123Z,40.4
2023-05-21T10:29:54.107Z,43.4
2023-05-21T10:35:54.140Z,41.9
2023-05-21T10:41:55.032Z,40.8
2023-05-21T10:47:54.554Z,53.6
2023-05-21T10:53:54.133Z,56.2
2023-05-21T10:59:54.121Z,54.4
2023-05-21T11:05:54.206Z,55.8
2023-05-21T11:12:04.428Z,58.1
2023-05-21T11:17:54.218Z,61.3
2023-05-21T11:23:54.140Z,59.8
2023-05-21T11:29:54.129Z,64.8
2023-05-21T11:35:54.149Z,58.4
2023-05-21T11:41:54.189Z,62.2
2023-05-21T11:47:54.283Z,65.6
2023-05-21T11:53:54.195Z,61.8
2023-05-21T11:59:54.125Z,66.4
2023-05-21T12:05:54.194Z,63.3
2023-05-21T12:11:54.368Z,61.1
2023-05-21T12:17:54.297Z,63.8
2023-05-21T12:23:54.169Z,65.6
2023-05-21T12:29:54.168Z,67.6
2023-05-21T12:35:54.400Z,63.3
2023-05-21T12:41:54.176Z,63.6
2023-05-21T12:48:04.487Z,61.6
2023-05-21T12:53:54.153Z,60.9
2023-05-21T12:59:54.148Z,60.1
2023-05-21T13:05:54.168Z,56.4
2023-05-21T13:11:54.189Z,58.9
2023-05-21T13:23:54.175Z,57.8
2023-05-21T13:29:54.187Z,61
2023-05-21T13:35:54.189Z,60.1
2023-05-21T13:41:54.160Z,54.6
2023-05-21T13:47:54.228Z,56.2
2023-05-21T13:59:54.193Z,52.5
2023-05-21T14:05:54.223Z,57.8
2023-05-21T14:11:54.206Z,57.2
2023-05-21T14:17:54.229Z,53.9
2023-05-21T14:23:54.211Z,57.4
2023-05-21T14:29:54.210Z,58.5
2023-05-21T14:35:54.222Z,57.1
2023-05-21T14:41:54.251Z,60.6
2023-05-21T14:47:54.217Z,58.5
2023-05-21T14:53:54.278Z,59.6
2023-05-21T14:59:54.274Z,61.2
2023-05-21T15:05:54.208Z,59.2
2023-05-21T15:11:54.219Z,59.5
2023-05-21T15:17:54.253Z,61.7
2023-05-21T15:23:54.223Z,59.9
2023-05-21T15:29:54.212Z,62.4
2023-05-21T15:35:54.291Z,63
2023-05-21T15:41:54.210Z,63.9
2023-05-21T15:47:54.287Z,62.3
2023-05-21T15:53:54.198Z,61.6
2023-05-21T15:59:54.218Z,63.4
2023-05-21T16:05:54.242Z,65.8
2023-05-21T16:11:54.221Z,69.5
2023-05-21T16:17:55.061Z,68.7
2023-05-21T16:23:54.228Z,71.1
2023-05-21T16:29:54.230Z,71.7
2023-05-21T16:35:54.258Z,78.4
2023-05-21T16:41:54.232Z,81.7
2023-05-21T16:47:54.248Z,83.3
2023-05-21T16:53:54.252Z,85
2023-05-21T16:59:54.326Z,88.5
2023-05-21T17:05:54.262Z,87.1
2023-05-21T17:18:01.048Z,87.7
2023-05-21T17:23:54.310Z,87.2
2023-05-21T17:29:54.268Z,89.1
2023-05-21T17:35:54.281Z,87.7
2023-05-21T17:41:54.236Z,88.6
2023-05-21T17:47:54.283Z,89
2023-05-21T17:53:54.236Z,91
2023-05-21T17:59:54.248Z,91.5
2023-05-21T18:05:54.258Z,92
2023-05-21T18:11:54.250Z,93.9
2023-05-21T18:17:59.745Z,95.4
2023-05-21T18:23:54.264Z,97.3
2023-05-21T18:29:54.239Z,99.1
2023-05-21T18:35:54.250Z,99.8
2023-05-21T18:42:11.560Z,100
2023-05-21T18:47:54.292Z,100
2023-05-21T18:53:54.251Z,100
2023-05-21T18:59:54.265Z,100
2023-05-21T19:05:54.256Z,100
2023-05-21T19:11:54.261Z,100
2023-05-21T19:17:54.325Z,100
2023-05-21T19:23:54.266Z,100
2023-05-21T19:29:54.258Z,100
2023-05-21T19:35:54.263Z,100
2023-05-21T19:47:54.300Z,100
2023-05-21T19:53:54.292Z,100
2023-05-21T19:59:54.301Z,100
2023-05-21T20:05:54.331Z,100
2023-05-21T20:18:04.584Z,100
2023-05-21T20:23:54.274Z,100
2023-05-21T20:29:54.300Z,100
2023-05-21T20:35:54.267Z,100
2023-05-21T20:41:54.297Z,100
2023-05-21T20:47:54.278Z,100
2023-05-21T20:53:54.295Z,100
2023-05-21T20:59:54.293Z,100
2023-05-21T21:05:54.269Z,100
2023-05-21T21:11:54.281Z,100
2023-05-21T21:17:54.349Z,100
2023-05-21T21:23:54.336Z,100
2023-05-21T21:29:54.292Z,100
2023-05-21T21:35:54.416Z,100
2023-05-21T21:41:54.309Z,100
2023-05-21T21:47:54.375Z,100
2023-05-21T21:53:54.310Z,100
2023-05-21T21:59:54.294Z,100
2023-05-21T22:05:54.331Z,100
2023-05-21T22:17:54.318Z,100
2023-05-21T22:23:54.301Z,100
2023-05-21T22:29:54.327Z,100
2023-05-21T22:35:54.523Z,100
2023-05-21T22:41:54.317Z,100
2023-05-21T22:47:54.346Z,100
2023-05-21T22:53:54.320Z,100
2023-05-21T22:59:54.305Z,100
2023-05-21T23:05:54.323Z,100
2023-05-21T23:11:54.326Z,100
2023-05-21T23:17:54.377Z,100
2023-05-21T23:23:54.329Z,100
2023-05-21T23:29:54.337Z,100
2023-05-21T23:35:54.360Z,100
2023-05-21T23:41:54.351Z,100
2023-05-21T23:47:54.374Z,100
2023-05-21T23:53:54.337Z,100
2023-05-21T23:59:54.347Z,100
